createdAt,value
2023-03-08T00:01:15.483Z,6.14
2023-03-08T00:06:31.685Z,6.32
2023-03-08T00:09:02.122Z,6.51
2023-03-08T00:11:36.407Z,6.60
2023-03-08T00:14:03.664Z,6.22
2023-03-08T00:16:58.114Z,6.31
2023-03-08T00:19:41.241Z,5.90
2023-03-08T00:22:17.077Z,6.55
2023-03-08T00:25:17.343Z,6.19
2023-03-08T00:27:45.431Z,6.30
2023-03-08T00:30:13.391Z,6.27
2023-03-08T00:32:42.570Z,6.51
2023-03-08T00:35:26.966Z,6.88
2023-03-08T00:37:53.910Z,7.16
2023-03-08T00:40:20.902Z,6.74
2023-03-08T00:42:47.972Z,6.50
2023-03-08T00:45:15.058Z,6.56
2023-03-08T00:47:42.207Z,6.51
2023-03-08T00:50:13.758Z,6.68
2023-03-08T00:52:40.738Z,6.31
2023-03-08T00:55:07.772Z,6.26
2023-03-08T01:03:27.427Z,6.13
2023-03-08T01:06:02.314Z,6.05
2023-03-08T01:08:35.743Z,6.23
2023-03-08T01:11:04.182Z,6.36
2023-03-08T01:13:33.936Z,6.02
2023-03-08T01:16:01.941Z,5.97
2023-03-08T01:18:29.377Z,5.98
2023-03-08T01:21:01.596Z,6.22
2023-03-08T01:23:28.872Z,5.73
2023-03-08T01:26:04.636Z,5.72
2023-03-08T01:28:32.717Z,5.44
2023-03-08T01:31:09.675Z,5.25
2023-03-08T01:33:37.040Z,5.50
2023-03-08T01:36:05.804Z,5.67
2023-03-08T01:38:33.015Z,5.69
2023-03-08T01:41:04.671Z,5.75
2023-03-08T01:43:35.554Z,6.05
2023-03-08T01:46:02.922Z,6.29
2023-03-08T01:48:50.307Z,6.34
2023-03-08T01:51:29.286Z,5.92
2023-03-08T01:53:58.208Z,5.86
2023-03-08T01:56:28.223Z,6.10
2023-03-08T01:59:18.147Z,5.81
2023-03-08T02:01:46.218Z,5.84
2023-03-08T02:04:13.858Z,5.91
2023-03-08T02:06:42.692Z,5.82
2023-03-08T02:09:10.147Z,6.01
2023-03-08T02:14:13.725Z,5.88
2023-03-08T02:16:47.415Z,5.57
2023-03-08T02:19:22.537Z,5.91
2023-03-08T02:21:50.120Z,5.52
2023-03-08T02:24:36.878Z,5.88
2023-03-08T02:27:10.261Z,5.80
2023-03-08T02:29:38.168Z,5.56
2023-03-08T02:32:31.073Z,5.34
2023-03-08T02:35:12.502Z,5.64
2023-03-08T02:37:41.702Z,5.15
2023-03-08T02:40:13.803Z,5.75
2023-03-08T02:42:43.319Z,4.96
2023-03-08T02:45:10.405Z,5.66
2023-03-08T02:47:38.191Z,5.32
2023-03-08T02:50:06.432Z,5.31
2023-03-08T02:52:33.436Z,5.32
2023-03-08T02:55:00.449Z,5.37
2023-03-08T02:57:27.338Z,5.25
2023-03-08T02:59:54.170Z,5.21
2023-03-08T03:02:21.147Z,5.35
2023-03-08T03:04:48.100Z,5.12
2023-03-08T03:07:14.880Z,5.48
2023-03-08T03:09:42.251Z,5.49
2023-03-08T03:12:09.297Z,5.28
2023-03-08T03:14:36.264Z,5.62
2023-03-08T03:17:06.287Z,5.77
2023-03-08T03:19:33.070Z,5.56
2023-03-08T03:22:00.131Z,5.80
2023-03-08T03:24:27.431Z,5.01
2023-03-08T03:26:54.587Z,5.09
2023-03-08T03:29:24.413Z,5.57
2023-03-08T03:31:51.574Z,5.86
2023-03-08T03:34:19.813Z,5.88
2023-03-08T03:36:46.782Z,5.26
2023-03-08T03:39:17.118Z,5.23
2023-03-08T03:41:44.243Z,5.08
2023-03-08T03:44:11.505Z,5.51
2023-03-08T03:46:38.843Z,5.24
2023-03-08T03:49:07.122Z,5.55
2023-03-08T03:51:36.629Z,5.48
2023-03-08T03:54:07.408Z,5.14
2023-03-08T03:56:34.546Z,5.01
2023-03-08T03:59:01.275Z,4.94
2023-03-08T04:01:34.225Z,5.21
2023-03-08T04:04:03.720Z,5.23
2023-03-08T04:06:32.479Z,4.72
2023-03-08T04:09:19.657Z,4.85
2023-03-08T04:11:49.610Z,7.80
2023-03-08T04:14:17.606Z,5.55
2023-03-08T04:16:47.174Z,5.36
2023-03-08T04:19:15.786Z,5.06
2023-03-08T04:21:42.835Z,4.88
2023-03-08T04:24:09.754Z,4.64
2023-03-08T04:26:36.655Z,4.70
2023-03-08T04:29:09.145Z,4.47
2023-03-08T04:31:37.206Z,4.50
2023-03-08T04:34:07.557Z,4.34
2023-03-08T04:36:34.601Z,4.11
2023-03-08T04:39:01.360Z,3.87
2023-03-08T04:41:28.687Z,4.02
2023-03-08T04:43:57.420Z,4.87
2023-03-08T04:46:27.771Z,4.59
2023-03-08T04:48:56.204Z,4.07
2023-03-08T04:51:26.935Z,4.12
2023-03-08T04:53:54.145Z,4.01
2023-03-08T04:56:21.172Z,3.84
2023-03-08T04:58:51.290Z,4.74
2023-03-08T05:01:20.939Z,4.73
2023-03-08T05:03:49.978Z,5.00
2023-03-08T05:06:17.554Z,4.31
2023-03-08T05:08:46.947Z,4.94
2023-03-08T05:11:19.782Z,4.44
2023-03-08T05:13:46.829Z,4.47
2023-03-08T05:16:13.892Z,4.72
2023-03-08T05:18:40.898Z,4.44
2023-03-08T05:21:11.677Z,4.37
2023-03-08T05:23:38.715Z,4.53
2023-03-08T05:26:07.812Z,4.71
2023-03-08T05:28:37.231Z,4.71
2023-03-08T05:31:16.135Z,4.78
2023-03-08T05:33:46.751Z,4.97
2023-03-08T05:36:15.069Z,5.39
2023-03-08T05:38:42.653Z,6.10
2023-03-08T05:41:13.776Z,5.88
2023-03-08T05:43:40.735Z,5.66
2023-03-08T05:46:15.613Z,5.66
2023-03-08T05:48:43.032Z,5.59
2023-03-08T05:51:15.828Z,5.61
2023-03-08T05:53:43.378Z,5.58
2023-03-08T05:56:24.286Z,5.83
2023-03-08T05:58:52.259Z,5.37
2023-03-08T06:01:24.248Z,6.10
2023-03-08T06:03:54.829Z,5.62
2023-03-08T06:06:23.467Z,5.82
2023-03-08T06:08:51.172Z,5.90
2023-03-08T06:11:19.343Z,5.74
2023-03-08T06:13:46.253Z,5.86
2023-03-08T06:16:13.142Z,6.66
2023-03-08T06:18:41.386Z,6.63
2023-03-08T06:21:12.519Z,7.19
2023-03-08T06:23:43.150Z,6.59
2023-03-08T06:26:11.021Z,8.28
2023-03-08T06:28:40.330Z,9.04
2023-03-08T06:31:18.457Z,7.15
2023-03-08T06:33:45.219Z,8.76
2023-03-08T06:36:15.614Z,7.73
2023-03-08T06:38:43.103Z,8.77
2023-03-08T06:41:14.947Z,9.48
2023-03-08T06:43:42.494Z,9.96
2023-03-08T06:46:13.704Z,8.90
2023-03-08T06:48:41.482Z,9.96
2023-03-08T06:53:44.099Z,8.98
2023-03-08T06:56:14.124Z,9.96
2023-03-08T06:58:41.198Z,10.18
2023-03-08T07:01:09.944Z,11.36
2023-03-08T07:03:37.953Z,10.88
2023-03-08T07:06:10.052Z,11.09
2023-03-08T07:08:39.609Z,10.23
2023-03-08T07:11:07.268Z,10.46
2023-03-08T07:13:34.593Z,9.52
2023-03-08T07:16:09.112Z,9.73
2023-03-08T07:18:36.132Z,10.05
2023-03-08T07:21:04.055Z,9.32
2023-03-08T07:23:31.339Z,9.47
2023-03-08T07:25:58.744Z,10.67
2023-03-08T07:28:25.597Z,10.31
2023-03-08T07:30:53.633Z,10.28
2023-03-08T07:33:21.963Z,10.10
2023-03-08T07:35:48.858Z,11.97
2023-03-08T07:38:17.173Z,10.55
2023-03-08T07:40:46.879Z,10.72
2023-03-08T07:43:13.603Z,9.60
2023-03-08T07:45:40.513Z,10.14
2023-03-08T07:48:07.713Z,9.42
2023-03-08T07:50:34.830Z,10.58
2023-03-08T07:53:01.885Z,10.26
2023-03-08T07:55:28.855Z,10.87
2023-03-08T07:57:57.930Z,11.44
2023-03-08T08:00:25.306Z,11.69
2023-03-08T08:02:54.372Z,12.48
2023-03-08T08:05:24.543Z,12.52
2023-03-08T08:07:51.799Z,12.27
2023-03-08T08:10:18.922Z,11.19
2023-03-08T08:12:45.856Z,12.30
2023-03-08T08:15:13.129Z,11.75
2023-03-08T08:17:40.033Z,11.29
2023-03-08T08:20:08.321Z,11.40
2023-03-08T08:22:36.693Z,11.48
2023-03-08T08:25:05.541Z,11.61
2023-03-08T08:27:33.720Z,11.49
2023-03-08T08:30:00.688Z,11.94
2023-03-08T08:32:27.836Z,11.66
2023-03-08T08:34:54.576Z,11.59
2023-03-08T08:37:21.470Z,11.75
2023-03-08T08:39:48.399Z,12.31
2023-03-08T08:42:15.174Z,12.19
2023-03-08T08:44:42.041Z,12.60
2023-03-08T08:47:09.156Z,12.20
2023-03-08T08:49:35.950Z,12.64
2023-03-08T08:52:02.738Z,12.01
2023-03-08T08:54:29.630Z,12.12
2023-03-08T08:56:58.937Z,11.68
2023-03-08T08:59:25.808Z,12.81
2023-03-08T09:01:53.265Z,12.27
2023-03-08T09:04:21.088Z,12.88
2023-03-08T09:06:48.191Z,11.47
2023-03-08T09:09:16.492Z,11.95
2023-03-08T09:11:54.276Z,12.23
2023-03-08T09:14:22.228Z,13.05
2023-03-08T09:16:49.044Z,12.57
2023-03-08T09:19:16.198Z,13.07
2023-03-08T09:21:43.048Z,13.75
2023-03-08T09:24:11.494Z,14.23
2023-03-08T09:26:52.679Z,13.98
2023-03-08T09:29:21.553Z,14.43
2023-03-08T09:31:48.444Z,14.62
2023-03-08T09:34:15.727Z,14.24
2023-03-08T09:36:43.430Z,14.36
2023-03-08T09:39:12.076Z,15.01
2023-03-08T09:41:45.256Z,15.65
2023-03-08T09:44:43.762Z,15.13
2023-03-08T09:47:43.162Z,15.12
2023-03-08T09:50:13.125Z,15.52
2023-03-08T09:52:50.651Z,14.92
2023-03-08T09:55:31.815Z,15.50
2023-03-08T09:58:05.726Z,15.50
2023-03-08T10:00:36.313Z,15.87
2023-03-08T10:03:31.000Z,16.50
2023-03-08T10:06:25.415Z,16.82
2023-03-08T10:09:34.098Z,16.51
2023-03-08T10:12:03.311Z,15.85
2023-03-08T10:14:41.615Z,15.13
2023-03-08T10:17:17.533Z,15.74
2023-03-08T10:19:55.299Z,15.81
2023-03-08T10:22:30.111Z,16.43
2023-03-08T10:25:51.491Z,16.84
2023-03-08T10:28:24.831Z,16.64
2023-03-08T10:30:59.009Z,16.99
2023-03-08T10:39:09.159Z,16.76
2023-03-08T10:45:38.692Z,16.36
2023-03-08T10:48:06.248Z,16.35
2023-03-08T10:50:39.748Z,16.63
2023-03-08T10:53:21.232Z,16.59
2023-03-08T10:55:50.603Z,16.83
2023-03-08T10:58:31.349Z,16.63
2023-03-08T11:01:01.179Z,16.64
2023-03-08T11:03:30.989Z,16.66
2023-03-08T11:06:02.195Z,16.90
2023-03-08T11:08:37.562Z,16.82
2023-03-08T11:11:13.251Z,17.01
2023-03-08T11:13:47.217Z,16.40
2023-03-08T11:16:20.348Z,16.54
2023-03-08T11:19:00.816Z,16.57
2023-03-08T11:21:33.678Z,16.45
2023-03-08T11:24:09.665Z,16.86
2023-03-08T11:26:51.701Z,16.25
2023-03-08T11:29:33.889Z,16.63
2023-03-08T11:32:19.604Z,16.70
2023-03-08T11:34:55.206Z,16.93
2023-03-08T11:37:37.106Z,17.44
2023-03-08T11:40:19.504Z,17.80
2023-03-08T11:43:28.396Z,17.18
2023-03-08T11:46:07.151Z,17.23
2023-03-08T11:49:15.761Z,17.38
2023-03-08T11:51:51.177Z,17.55
2023-03-08T11:54:54.445Z,17.27
2023-03-08T11:57:24.824Z,17.00
2023-03-08T11:59:57.997Z,16.60
2023-03-08T12:02:30.753Z,16.19
2023-03-08T12:05:04.403Z,16.39
2023-03-08T12:07:45.215Z,16.97
2023-03-08T12:10:29.209Z,16.93
2023-03-08T12:13:06.706Z,17.20
2023-03-08T12:16:01.716Z,17.23
2023-03-08T12:18:34.865Z,17.03
2023-03-08T12:21:33.872Z,17.17
2023-03-08T12:24:22.564Z,16.65
2023-03-08T12:27:01.530Z,16.65
2023-03-08T12:29:43.853Z,16.48
2023-03-08T12:32:13.776Z,16.40
2023-03-08T12:34:46.611Z,16.18
2023-03-08T12:37:25.917Z,16.80
2023-03-08T12:40:07.492Z,16.40
2023-03-08T12:42:38.617Z,16.66
2023-03-08T12:45:31.185Z,16.76
2023-03-08T12:48:07.473Z,16.61
2023-03-08T12:50:42.927Z,16.39
2023-03-08T12:53:37.040Z,16.47
2023-03-08T12:56:14.132Z,16.26
2023-03-08T12:58:49.327Z,16.42
2023-03-08T13:01:31.396Z,16.45
2023-03-08T13:03:59.242Z,16.24
2023-03-08T13:06:27.456Z,16.23
2023-03-08T13:08:59.467Z,16.47
2023-03-08T13:11:37.955Z,16.61
2023-03-08T13:14:06.257Z,16.63
2023-03-08T13:16:38.898Z,16.79
2023-03-08T13:19:15.479Z,16.63
2023-03-08T13:21:51.252Z,16.52
2023-03-08T13:24:40.624Z,16.72
2023-03-08T13:27:13.617Z,16.94
2023-03-08T13:29:46.817Z,17.07
2023-03-08T13:32:19.628Z,17.19
2023-03-08T13:34:58.633Z,17.16
2023-03-08T13:37:28.377Z,17.31
2023-03-08T13:39:57.707Z,17.02
2023-03-08T13:42:26.855Z,17.42
2023-03-08T13:45:06.337Z,17.34
2023-03-08T13:47:35.982Z,17.19
2023-03-08T13:53:38.256Z,17.18
2023-03-08T13:56:07.261Z,16.56
2023-03-08T13:58:40.726Z,16.85
2023-03-08T14:01:18.397Z,16.82
2023-03-08T14:03:46.532Z,16.65
2023-03-08T14:06:30.451Z,16.92
2023-03-08T14:09:10.547Z,16.66
2023-03-08T14:17:02.165Z,16.28
2023-03-08T14:19:39.692Z,16.21
2023-03-08T14:22:32.356Z,16.21
2023-03-08T14:25:05.699Z,16.51
2023-03-08T14:27:36.413Z,16.25
2023-03-08T14:30:18.570Z,16.07
2023-03-08T14:33:18.265Z,16.14
2023-03-08T14:35:53.422Z,16.07
2023-03-08T14:38:27.929Z,16.18
2023-03-08T14:41:22.038Z,16.17
2023-03-08T14:47:54.604Z,16.63
2023-03-08T14:50:01.628Z,16.25
2023-03-08T14:52:50.996Z,16.19
2023-03-08T14:55:23.583Z,16.03
2023-03-08T14:58:04.134Z,16.06
2023-03-08T15:00:31.792Z,16.05
2023-03-08T15:03:09.164Z,15.94
2023-03-08T15:05:38.272Z,15.77
2023-03-08T15:08:18.503Z,15.94
2023-03-08T15:10:46.877Z,15.75
2023-03-08T15:15:50.146Z,16.09
2023-03-08T15:23:53.664Z,15.86
2023-03-08T15:26:28.527Z,15.82
2023-03-08T15:28:56.146Z,15.91
2023-03-08T15:31:23.593Z,15.68
2023-03-08T15:33:52.261Z,15.82
2023-03-08T15:36:19.652Z,15.99
2023-03-08T15:38:56.504Z,16.12
2023-03-08T15:41:23.809Z,16.19
2023-03-08T15:43:51.718Z,16.03
2023-03-08T15:46:50.364Z,16.05
2023-03-08T15:49:19.153Z,15.95
2023-03-08T15:51:46.009Z,15.82
2023-03-08T15:54:13.205Z,15.76
2023-03-08T15:56:40.110Z,15.51
2023-03-08T15:59:07.558Z,15.43
2023-03-08T16:01:34.664Z,15.50
2023-03-08T16:04:01.711Z,15.47
2023-03-08T16:06:28.393Z,15.39
2023-03-08T16:08:55.685Z,15.31
2023-03-08T16:11:22.969Z,15.16
2023-03-08T16:13:52.488Z,15.06
2023-03-08T16:16:20.806Z,15.09
2023-03-08T16:18:49.052Z,15.07
2023-03-08T16:21:16.863Z,15.02
2023-03-08T16:23:43.877Z,15.10
2023-03-08T16:26:16.691Z,14.94
2023-03-08T16:28:50.058Z,14.81
2023-03-08T16:31:20.875Z,14.91
2023-03-08T16:33:48.161Z,14.81
2023-03-08T16:36:15.308Z,14.75
2023-03-08T16:38:42.942Z,14.70
2023-03-08T16:41:13.325Z,14.67
2023-03-08T16:43:47.652Z,14.71
2023-03-08T16:46:17.852Z,14.69
2023-03-08T16:48:44.975Z,14.64
2023-03-08T16:51:16.388Z,14.54
2023-03-08T16:53:43.938Z,14.12
2023-03-08T16:56:21.904Z,13.53
2023-03-08T16:58:49.286Z,13.57
2023-03-08T17:01:20.241Z,13.67
2023-03-08T17:03:47.910Z,13.60
2023-03-08T17:06:18.374Z,13.28
2023-03-08T17:08:48.982Z,13.07
2023-03-08T17:11:24.083Z,13.02
2023-03-08T17:13:52.868Z,12.99
2023-03-08T17:16:23.561Z,12.82
2023-03-08T17:18:51.519Z,12.84
2023-03-08T17:21:21.372Z,12.73
2023-03-08T17:24:03.685Z,12.68
2023-03-08T17:26:30.649Z,12.41
2023-03-08T17:31:50.974Z,12.40
2023-03-08T17:34:23.455Z,12.28
2023-03-08T17:36:57.868Z,12.52
2023-03-08T17:39:33.626Z,12.25
2023-03-08T17:42:30.677Z,12.24
2023-03-08T17:44:58.200Z,12.32
2023-03-08T17:47:28.712Z,12.44
2023-03-08T17:50:06.856Z,12.28
2023-03-08T17:52:37.312Z,12.28
2023-03-08T17:55:11.677Z,11.99
2023-03-08T17:58:03.218Z,11.81
2023-03-08T18:00:33.116Z,11.73
2023-03-08T18:03:00.268Z,11.61
2023-03-08T18:05:27.697Z,11.54
2023-03-08T18:07:55.105Z,11.84
2023-03-08T18:10:22.047Z,11.69
2023-03-08T18:12:51.783Z,11.55
2023-03-08T18:15:18.546Z,11.37
2023-03-08T18:17:46.029Z,11.18
2023-03-08T18:20:34.126Z,11.31
2023-03-08T18:23:01.377Z,10.88
2023-03-08T18:25:33.420Z,11.17
2023-03-08T18:28:00.448Z,11.04
2023-03-08T18:30:27.808Z,10.93
2023-03-08T18:33:08.996Z,11.08
2023-03-08T18:35:43.855Z,10.94
2023-03-08T18:38:12.053Z,11.25
2023-03-08T18:40:43.142Z,11.23
2023-03-08T18:43:09.967Z,11.01
2023-03-08T18:45:37.033Z,11.13
2023-03-08T18:48:06.266Z,10.89
2023-03-08T18:50:44.886Z,10.93
2023-03-08T18:53:20.743Z,10.86
2023-03-08T18:56:06.979Z,10.74
2023-03-08T18:59:20.206Z,11.11
2023-03-08T19:04:33.753Z,11.35
2023-03-08T19:07:01.267Z,11.20
2023-03-08T19:09:28.263Z,11.28
2023-03-08T19:11:55.077Z,11.17
2023-03-08T19:14:25.124Z,10.94
2023-03-08T19:16:52.416Z,10.88
2023-03-08T19:19:19.123Z,10.72
2023-03-08T19:21:49.744Z,10.62
2023-03-08T19:24:17.977Z,10.71
2023-03-08T19:26:51.390Z,10.59
2023-03-08T19:29:25.305Z,10.79
2023-03-08T19:32:18.488Z,10.61
2023-03-08T19:34:56.459Z,10.96
2023-03-08T19:37:23.568Z,10.77
2023-03-08T19:39:57.214Z,10.83
2023-03-08T19:42:30.524Z,10.78
2023-03-08T19:44:57.205Z,10.57
2023-03-08T19:47:27.119Z,10.49
2023-03-08T19:50:00.779Z,10.56
2023-03-08T19:52:28.181Z,10.47
2023-03-08T19:55:31.871Z,10.42
2023-03-08T19:57:59.028Z,10.52
2023-03-08T20:00:25.991Z,9.98
2023-03-08T20:02:56.891Z,10.30
2023-03-08T20:05:33.160Z,10.18
2023-03-08T20:08:00.562Z,9.91
2023-03-08T20:10:27.214Z,10.08
2023-03-08T20:12:53.872Z,10.51
2023-03-08T20:15:20.758Z,10.13
2023-03-08T20:17:48.383Z,9.99
2023-03-08T20:20:15.261Z,9.69
2023-03-08T20:22:42.662Z,9.92
2023-03-08T20:25:12.906Z,9.80
2023-03-08T20:27:40.962Z,9.81
2023-03-08T20:30:11.732Z,9.75
2023-03-08T20:32:40.296Z,9.82
2023-03-08T20:35:08.509Z,10.07
2023-03-08T20:37:53.056Z,9.88
2023-03-08T20:40:27.853Z,9.86
2023-03-08T20:42:58.476Z,10.07
2023-03-08T20:46:28.562Z,9.84
2023-03-08T20:49:03.131Z,9.93
2023-03-08T20:56:48.625Z,9.78
2023-03-08T20:59:23.381Z,9.72
2023-03-08T21:01:52.843Z,9.82
2023-03-08T21:04:20.015Z,9.77
2023-03-08T21:06:49.026Z,9.79
2023-03-08T21:09:16.437Z,9.73
2023-03-08T21:11:46.288Z,9.89
2023-03-08T21:14:13.896Z,9.40
2023-03-08T21:16:41.021Z,9.53
2023-03-08T21:19:09.229Z,9.52
2023-03-08T21:21:46.943Z,9.50
2023-03-08T21:24:16.691Z,9.48
2023-03-08T21:26:44.263Z,9.48
2023-03-08T21:29:14.104Z,9.68
2023-03-08T21:31:48.572Z,9.82
2023-03-08T21:34:16.098Z,9.78
2023-03-08T21:36:43.766Z,9.79
2023-03-08T21:39:12.299Z,9.79
2023-03-08T21:41:47.092Z,9.61
2023-03-08T21:44:17.300Z,9.46
2023-03-08T21:46:45.137Z,9.61
2023-03-08T21:49:22.928Z,9.80
2023-03-08T21:51:51.194Z,9.80
2023-03-08T21:54:21.187Z,9.72
2023-03-08T21:56:52.496Z,9.72
2023-03-08T21:59:30.992Z,9.43
2023-03-08T22:01:59.433Z,9.57
2023-03-08T22:04:29.776Z,9.41
2023-03-08T22:06:57.742Z,9.64
2023-03-08T22:09:28.374Z,9.33
2023-03-08T22:11:57.110Z,9.02
2023-03-08T22:14:24.159Z,9.06
2023-03-08T22:17:34.663Z,9.18
2023-03-08T22:20:25.388Z,9.05
2023-03-08T22:22:55.922Z,8.59
2023-03-08T22:25:25.910Z,8.84
2023-03-08T22:27:53.013Z,8.92
2023-03-08T22:30:22.453Z,9.08
2023-03-08T22:32:49.344Z,8.73
2023-03-08T22:35:17.100Z,8.79
2023-03-08T22:37:46.260Z,8.66
2023-03-08T22:40:13.484Z,8.90
2023-03-08T22:43:24.741Z,8.47
2023-03-08T23:06:07.424Z,8.37
2023-03-08T23:08:37.992Z,8.35
2023-03-08T23:11:27.289Z,8.34
2023-03-08T23:15:00.885Z,8.09
2023-03-08T23:17:39.905Z,7.61
2023-03-08T23:20:32.155Z,7.95
2023-03-08T23:26:07.767Z,7.94
2023-03-08T23:28:39.690Z,7.60
2023-03-08T23:31:18.728Z,7.57
2023-03-08T23:33:46.509Z,7.69
2023-03-08T23:36:23.762Z,7.65
2023-03-08T23:38:52.035Z,7.89
2023-03-08T23:41:20.312Z,7.56
2023-03-08T23:44:01.371Z,7.82
2023-03-08T23:49:17.382Z,7.68
2023-03-08T23:51:50.846Z,7.92
2023-03-08T23:54:23.584Z,7.35
2023-03-08T23:56:50.507Z,7.29
2023-03-08T23:59:20.098Z,7.37
